sensor_id;sensor_type;location;lat;lon;timestamp;pressure;altitude;pressure_sealevel;temperature;humidity
47809;BME280;33573;38.790;-77.084;2022-07-15T00:00:35;101365.37;;;33.19;27.10
47809;BME280;33573;38.790;-77.084;2022-07-15T00:03:02;101368.62;;;33.14;27.05
47809;BME280;33573;38.790;-77.084;2022-07-15T00:05:31;101371.73;;;33.21;27.18
47809;BME280;33573;38.790;-77.084;2022-07-15T00:07:58;101374.24;;;32.43;27.33
47809;BME280;33573;38.790;-77.084;2022-07-15T00:10:27;101378.85;;;32.47;27.44
47809;BME280;33573;38.790;-77.084;2022-07-15T00:12:57;101384.37;;;32.37;27.52
47809;BME280;33573;38.790;-77.084;2022-07-15T00:15:27;101385.19;;;32.30;27.55
47809;BME280;33573;38.790;-77.084;2022-07-15T00:17:55;101388.18;;;32.55;27.64
47809;BME280;33573;38.790;-77.084;2022-07-15T00:20:23;101393.51;;;32.31;27.64
47809;BME280;33573;38.790;-77.084;2022-07-15T00:22:51;101396.30;;;32.65;27.61
47809;BME280;33573;38.790;-77.084;2022-07-15T00:25:19;101394.48;;;32.92;27.45
47809;BME280;33573;38.790;-77.084;2022-07-15T00:27:52;101397.14;;;32.59;27.20
47809;BME280;33573;38.790;-77.084;2022-07-15T00:30:21;101397.38;;;32.65;27.18
47809;BME280;33573;38.790;-77.084;2022-07-15T00:32:49;101398.04;;;32.49;27.21
47809;BME280;33573;38.790;-77.084;2022-07-15T00:35:17;101405.19;;;32.75;27.33
47809;BME280;33573;38.790;-77.084;2022-07-15T00:37:45;101411.64;;;32.39;27.37
47809;BME280;33573;38.790;-77.084;2022-07-15T00:40:13;101409.71;;;32.76;27.33
47809;BME280;33573;38.790;-77.084;2022-07-15T00:42:41;101415.67;;;32.78;27.31
47809;BME280;33573;38.790;-77.084;2022-07-15T00:45:10;101424.40;;;32.15;27.32
47809;BME280;33573;38.790;-77.084;2022-07-15T00:47:38;101431.86;;;32.36;27.35
47809;BME280;33573;38.790;-77.084;2022-07-15T00:50:06;101436.12;;;32.36;27.39
47809;BME280;33573;38.790;-77.084;2022-07-15T00:52:35;101437.90;;;32.89;27.24
47809;BME280;33573;38.790;-77.084;2022-07-15T00:55:09;101440.06;;;32.90;26.98
47809;BME280;33573;38.790;-77.084;2022-07-15T00:57:38;101443.47;;;33.34;26.70
47809;BME280;33573;38.790;-77.084;2022-07-15T01:00:08;101444.44;;;32.91;26.59
47809;BME280;33573;38.790;-77.084;2022-07-15T01:02:38;101443.74;;;32.91;26.77
47809;BME280;33573;38.790;-77.084;2022-07-15T01:05:08;101446.05;;;32.60;26.84
47809;BME280;33573;38.790;-77.084;2022-07-15T01:07:38;101446.21;;;33.23;26.79
47809;BME280;33573;38.790;-77.084;2022-07-15T01:10:06;101446.47;;;32.94;26.78
47809;BME280;33573;38.790;-77.084;2022-07-15T01:12:35;101446.27;;;32.66;26.89
47809;BME280;33573;38.790;-77.084;2022-07-15T01:15:04;101447.80;;;32.78;26.92
47809;BME280;33573;38.790;-77.084;2022-07-15T01:17:32;101450.15;;;32.58;26.87
47809;BME280;33573;38.790;-77.084;2022-07-15T01:20:00;101450.79;;;32.57;26.86
47809;BME280;33573;38.790;-77.084;2022-07-15T01:22:28;101451.89;;;32.92;26.80
47809;BME280;33573;38.790;-77.084;2022-07-15T01:24:56;101453.27;;;33.43;26.67
47809;BME280;33573;38.790;-77.084;2022-07-15T01:27:24;101456.45;;;33.24;26.45
47809;BME280;33573;38.790;-77.084;2022-07-15T01:29:52;101460.43;;;33.20;26.45
47809;BME280;33573;38.790;-77.084;2022-07-15T01:32:20;101464.90;;;33.28;26.55
47809;BME280;33573;38.790;-77.084;2022-07-15T01:34:48;101468.06;;;33.31;26.57
47809;BME280;33573;38.790;-77.084;2022-07-15T01:37:16;101474.81;;;32.79;26.67
47809;BME280;33573;38.790;-77.084;2022-07-15T01:39:44;101475.63;;;32.92;26.79
47809;BME280;33573;38.790;-77.084;2022-07-15T01:42:12;101478.49;;;32.87;26.82
47809;BME280;33573;38.790;-77.084;2022-07-15T01:44:40;101481.38;;;32.94;26.82
47809;BME280;33573;38.790;-77.084;2022-07-15T01:47:08;101490.39;;;32.64;26.86
47809;BME280;33573;38.790;-77.084;2022-07-15T01:49:36;101500.27;;;32.67;26.81
47809;BME280;33573;38.790;-77.084;2022-07-15T01:52:04;101508.44;;;32.85;26.85
47809;BME280;33573;38.790;-77.084;2022-07-15T01:54:32;101510.56;;;32.26;26.92
47809;BME280;33573;38.790;-77.084;2022-07-15T01:57:00;101514.79;;;32.33;26.93
47809;BME280;33573;38.790;-77.084;2022-07-15T01:59:28;101519.19;;;32.71;26.96
47809;BME280;33573;38.790;-77.084;2022-07-15T02:01:57;101522.81;;;32.62;26.91
47809;BME280;33573;38.790;-77.084;2022-07-15T02:04:26;101528.16;;;32.65;27.01
47809;BME280;33573;38.790;-77.084;2022-07-15T02:06:54;101527.01;;;32.58;27.11
47809;BME280;33573;38.790;-77.084;2022-07-15T02:09:22;101526.04;;;32.17;27.12
47809;BME280;33573;38.790;-77.084;2022-07-15T02:11:50;101531.45;;;32.44;27.07
47809;BME280;33573;38.790;-77.084;2022-07-15T02:14:18;101530.13;;;31.99;27.21
47809;BME280;33573;38.790;-77.084;2022-07-15T02:16:46;101538.34;;;32.35;27.17
47809;BME280;33573;38.790;-77.084;2022-07-15T02:19:14;101544.17;;;32.61;27.20
47809;BME280;33573;38.790;-77.084;2022-07-15T02:21:42;101544.91;;;32.33;27.13
47809;BME280;33573;38.790;-77.084;2022-07-15T02:24:10;101545.48;;;32.48;27.13
47809;BME280;33573;38.790;-77.084;2022-07-15T02:26:38;101551.83;;;32.30;27.12
47809;BME280;33573;38.790;-77.084;2022-07-15T02:29:06;101558.23;;;32.35;27.14
47809;BME280;33573;38.790;-77.084;2022-07-15T02:31:34;101561.79;;;32.83;26.86
47809;BME280;33573;38.790;-77.084;2022-07-15T02:34:02;101563.22;;;33.64;26.48
47809;BME280;33573;38.790;-77.084;2022-07-15T02:36:30;101560.26;;;33.40;26.26
47809;BME280;33573;38.790;-77.084;2022-07-15T02:38:58;101553.69;;;33.53;25.89
47809;BME280;33573;38.790;-77.084;2022-07-15T02:41:26;101551.10;;;33.32;25.58
47809;BME280;33573;38.790;-77.084;2022-07-15T02:43:54;101552.40;;;33.29;25.32
47809;BME280;33573;38.790;-77.084;2022-07-15T02:46:22;101551.69;;;33.47;25.06
47809;BME280;33573;38.790;-77.084;2022-07-15T02:48:50;101549.56;;;33.63;24.84
47809;BME280;33573;38.790;-77.084;2022-07-15T02:51:18;101553.53;;;33.54;24.79
47809;BME280;33573;38.790;-77.084;2022-07-15T02:53:46;101556.98;;;33.53;24.56
47809;BME280;33573;38.790;-77.084;2022-07-15T02:56:14;101560.13;;;33.33;24.70
47809;BME280;33573;38.790;-77.084;2022-07-15T02:58:42;101559.16;;;33.14;25.02
47809;BME280;33573;38.790;-77.084;2022-07-15T03:01:10;101555.39;;;33.23;25.02
47809;BME280;33573;38.790;-77.084;2022-07-15T03:03:38;101558.24;;;33.28;24.89
47809;BME280;33573;38.790;-77.084;2022-07-15T03:06:07;101555.01;;;33.35;24.64
47809;BME280;33573;38.790;-77.084;2022-07-15T03:08:35;101560.08;;;33.28;24.55
47809;BME280;33573;38.790;-77.084;2022-07-15T03:11:03;101556.36;;;32.95;24.44
47809;BME280;33573;38.790;-77.084;2022-07-15T03:13:31;101560.32;;;33.17;24.33
47809;BME280;33573;38.790;-77.084;2022-07-15T03:15:59;101561.44;;;33.14;24.24
47809;BME280;33573;38.790;-77.084;2022-07-15T03:18:27;101561.20;;;32.89;24.54
47809;BME280;33573;38.790;-77.084;2022-07-15T03:20:55;101559.13;;;32.76;24.75
47809;BME280;33573;38.790;-77.084;2022-07-15T03:23:23;101562.66;;;32.85;24.77
47809;BME280;33573;38.790;-77.084;2022-07-15T03:25:51;101567.50;;;32.98;24.65
47809;BME280;33573;38.790;-77.084;2022-07-15T03:28:19;101567.95;;;32.98;24.53
47809;BME280;33573;38.790;-77.084;2022-07-15T03:30:47;101569.92;;;33.30;24.18
47809;BME280;33573;38.790;-77.084;2022-07-15T03:33:15;101568.39;;;32.98;24.03
47809;BME280;33573;38.790;-77.084;2022-07-15T03:35:43;101562.97;;;32.92;23.94
47809;BME280;33573;38.790;-77.084;2022-07-15T03:38:11;101565.39;;;33.00;24.01
47809;BME280;33573;38.790;-77.084;2022-07-15T03:40:39;101572.96;;;32.49;24.33
47809;BME280;33573;38.790;-77.084;2022-07-15T03:43:07;101579.52;;;32.65;24.38
47809;BME280;33573;38.790;-77.084;2022-07-15T03:45:35;101577.53;;;32.74;24.33
47809;BME280;33573;38.790;-77.084;2022-07-15T03:48:03;101573.88;;;33.36;24.07
47809;BME280;33573;38.790;-77.084;2022-07-15T03:50:31;101569.34;;;33.04;24.00
47809;BME280;33573;38.790;-77.084;2022-07-15T03:52:59;101574.35;;;33.00;23.82
47809;BME280;33573;38.790;-77.084;2022-07-15T03:55:27;101573.10;;;32.77;23.93
47809;BME280;33573;38.790;-77.084;2022-07-15T03:57:55;101570.91;;;32.46;24.07
47809;BME280;33573;38.790;-77.084;2022-07-15T04:00:23;101574.51;;;32.54;24.11
47809;BME280;33573;38.790;-77.084;2022-07-15T04:02:51;101573.70;;;32.59;24.20
47809;BME280;33573;38.790;-77.084;2022-07-15T04:05:19;101581.99;;;32.60;24.31
47809;BME280;33573;38.790;-77.084;2022-07-15T04:07:47;101584.36;;;32.56;24.19
47809;BME280;33573;38.790;-77.084;2022-07-15T04:10:15;101586.13;;;32.84;23.95
47809;BME280;33573;38.790;-77.084;2022-07-15T04:12:43;101587.18;;;32.66;23.72
47809;BME280;33573;38.790;-77.084;2022-07-15T04:15:11;101582.49;;;32.99;23.78
47809;BME280;33573;38.790;-77.084;2022-07-15T04:17:39;101586.98;;;32.58;23.84
47809;BME280;33573;38.790;-77.084;2022-07-15T04:20:09;101584.64;;;32.56;23.90
47809;BME280;33573;38.790;-77.084;2022-07-15T04:22:39;101582.18;;;32.49;24.07
47809;BME280;33573;38.790;-77.084;2022-07-15T04:25:08;101585.05;;;32.38;24.19
47809;BME280;33573;38.790;-77.084;2022-07-15T04:27:36;101585.58;;;32.17;24.24
47809;BME280;33573;38.790;-77.084;2022-07-15T04:30:05;101586.04;;;32.95;24.01
47809;BME280;33573;38.790;-77.084;2022-07-15T04:32:34;101585.07;;;32.67;23.86
47809;BME280;33573;38.790;-77.084;2022-07-15T04:35:01;101579.66;;;32.51;23.61
47809;BME280;33573;38.790;-77.084;2022-07-15T04:37:29;101583.00;;;32.40;23.68
47809;BME280;33573;38.790;-77.084;2022-07-15T04:39:57;101590.12;;;32.10;23.95
47809;BME280;33573;38.790;-77.084;2022-07-15T04:42:25;101596.11;;;32.10;24.04
47809;BME280;33573;38.790;-77.084;2022-07-15T04:44:53;101593.52;;;32.43;23.99
47809;BME280;33573;38.790;-77.084;2022-07-15T04:47:21;101594.14;;;32.43;24.07
47809;BME280;33573;38.790;-77.084;2022-07-15T04:49:49;101596.02;;;32.25;24.07
47809;BME280;33573;38.790;-77.084;2022-07-15T04:52:17;101595.57;;;32.41;24.11
47809;BME280;33573;38.790;-77.084;2022-07-15T04:54:45;101590.67;;;32.34;24.25
47809;BME280;33573;38.790;-77.084;2022-07-15T04:57:14;101587.74;;;32.52;24.07
47809;BME280;33573;38.790;-77.084;2022-07-15T04:59:42;101589.02;;;32.40;23.87
47809;BME280;33573;38.790;-77.084;2022-07-15T05:02:10;101593.77;;;32.55;23.77
47809;BME280;33573;38.790;-77.084;2022-07-15T05:04:38;101593.67;;;32.56;23.75
47809;BME280;33573;38.790;-77.084;2022-07-15T05:07:07;101598.01;;;32.51;23.86
47809;BME280;33573;38.790;-77.084;2022-07-15T05:09:34;101603.08;;;32.12;23.98
47809;BME280;33573;38.790;-77.084;2022-07-15T05:12:02;101598.98;;;32.17;24.14
47809;BME280;33573;38.790;-77.084;2022-07-15T05:14:30;101599.44;;;32.32;24.13
47809;BME280;33573;38.790;-77.084;2022-07-15T05:16:58;101598.66;;;32.56;24.15
47809;BME280;33573;38.790;-77.084;2022-07-15T05:19:26;101596.26;;;32.27;24.24
47809;BME280;33573;38.790;-77.084;2022-07-15T05:21:54;101592.63;;;31.95;24.29
47809;BME280;33573;38.790;-77.084;2022-07-15T05:24:22;101596.89;;;32.24;24.29
47809;BME280;33573;38.790;-77.084;2022-07-15T05:26:50;101598.99;;;32.40;24.33
47809;BME280;33573;38.790;-77.084;2022-07-15T05:29:18;101600.79;;;32.17;24.25
47809;BME280;33573;38.790;-77.084;2022-07-15T05:31:46;101605.48;;;32.33;24.28
47809;BME280;33573;38.790;-77.084;2022-07-15T05:34:14;101606.51;;;32.21;24.37
47809;BME280;33573;38.790;-77.084;2022-07-15T05:36:42;101613.61;;;32.28;24.40
47809;BME280;33573;38.790;-77.084;2022-07-15T05:39:10;101619.97;;;32.24;24.43
47809;BME280;33573;38.790;-77.084;2022-07-15T05:41:38;101623.31;;;32.04;24.41
47809;BME280;33573;38.790;-77.084;2022-07-15T05:44:06;101627.58;;;32.30;24.46
47809;BME280;33573;38.790;-77.084;2022-07-15T05:46:34;101626.62;;;32.12;24.44
47809;BME280;33573;38.790;-77.084;2022-07-15T05:49:03;101625.89;;;32.28;24.49
47809;BME280;33573;38.790;-77.084;2022-07-15T05:51:30;101627.93;;;32.61;24.52
47809;BME280;33573;38.790;-77.084;2022-07-15T05:53:58;101629.14;;;32.30;24.57
47809;BME280;33573;38.790;-77.084;2022-07-15T05:56:26;101629.81;;;31.97;24.60
47809;BME280;33573;38.790;-77.084;2022-07-15T05:58:54;101631.55;;;32.11;24.55
47809;BME280;33573;38.790;-77.084;2022-07-15T06:01:22;101628.52;;;32.35;24.59
47809;BME280;33573;38.790;-77.084;2022-07-15T06:03:50;101632.32;;;32.38;24.55
47809;BME280;33573;38.790;-77.084;2022-07-15T06:06:18;101631.84;;;32.39;24.58
47809;BME280;33573;38.790;-77.084;2022-07-15T06:08:47;101625.30;;;32.29;24.63
47809;BME280;33573;38.790;-77.084;2022-07-15T06:11:15;101624.44;;;32.36;24.65
47809;BME280;33573;38.790;-77.084;2022-07-15T06:13:43;101627.68;;;32.70;24.62
47809;BME280;33573;38.790;-77.084;2022-07-15T06:16:11;101631.28;;;32.34;24.64
47809;BME280;33573;38.790;-77.084;2022-07-15T06:18:39;101631.73;;;32.34;24.67
47809;BME280;33573;38.790;-77.084;2022-07-15T06:21:07;101635.00;;;32.47;24.62
47809;BME280;33573;38.790;-77.084;2022-07-15T06:23:35;101636.43;;;32.50;24.60
47809;BME280;33573;38.790;-77.084;2022-07-15T06:26:03;101635.76;;;32.77;24.61
47809;BME280;33573;38.790;-77.084;2022-07-15T06:28:31;101635.25;;;32.17;24.68
47809;BME280;33573;38.790;-77.084;2022-07-15T06:30:59;101635.85;;;32.33;24.75
47809;BME280;33573;38.790;-77.084;2022-07-15T06:33:27;101634.60;;;32.71;24.74
47809;BME280;33573;38.790;-77.084;2022-07-15T06:35:55;101633.86;;;32.10;24.76
47809;BME280;33573;38.790;-77.084;2022-07-15T06:38:23;101635.19;;;32.05;24.82
47809;BME280;33573;38.790;-77.084;2022-07-15T06:40:51;101635.16;;;32.36;24.80
47809;BME280;33573;38.790;-77.084;2022-07-15T06:43:19;101633.87;;;32.12;24.83
47809;BME280;33573;38.790;-77.084;2022-07-15T06:45:47;101632.59;;;32.70;24.80
47809;BME280;33573;38.790;-77.084;2022-07-15T06:48:15;101628.98;;;32.26;24.87
47809;BME280;33573;38.790;-77.084;2022-07-15T06:50:43;101622.29;;;32.00;24.91
47809;BME280;33573;38.790;-77.084;2022-07-15T06:53:11;101620.33;;;32.26;24.91
47809;BME280;33573;38.790;-77.084;2022-07-15T06:55:39;101615.38;;;32.20;24.87
47809;BME280;33573;38.790;-77.084;2022-07-15T06:58:07;101612.05;;;32.13;24.91
47809;BME280;33573;38.790;-77.084;2022-07-15T07:00:35;101614.61;;;32.13;24.91
47809;BME280;33573;38.790;-77.084;2022-07-15T07:03:03;101613.83;;;32.28;24.84
47809;BME280;33573;38.790;-77.084;2022-07-15T07:05:31;101611.67;;;32.35;24.91
47809;BME280;33573;38.790;-77.084;2022-07-15T07:07:59;101608.84;;;32.31;24.97
47809;BME280;33573;38.790;-77.084;2022-07-15T07:10:27;101609.00;;;32.24;24.93
47809;BME280;33573;38.790;-77.084;2022-07-15T07:12:55;101615.95;;;32.12;24.95
47809;BME280;33573;38.790;-77.084;2022-07-15T07:15:23;101616.35;;;32.36;24.99
47809;BME280;33573;38.790;-77.084;2022-07-15T07:17:51;101617.87;;;32.36;25.02
47809;BME280;33573;38.790;-77.084;2022-07-15T07:20:19;101615.51;;;32.37;25.02
47809;BME280;33573;38.790;-77.084;2022-07-15T07:22:47;101611.87;;;32.24;24.98
47809;BME280;33573;38.790;-77.084;2022-07-15T07:25:15;101609.19;;;32.14;25.02
47809;BME280;33573;38.790;-77.084;2022-07-15T07:27:43;101605.03;;;32.21;25.03
47809;BME280;33573;38.790;-77.084;2022-07-15T07:30:12;101605.81;;;31.86;25.07
47809;BME280;33573;38.790;-77.084;2022-07-15T07:32:39;101609.20;;;32.41;25.06
47809;BME280;33573;38.790;-77.084;2022-07-15T07:35:08;101610.01;;;32.34;25.10
47809;BME280;33573;38.790;-77.084;2022-07-15T07:37:35;101605.10;;;32.15;25.11
47809;BME280;33573;38.790;-77.084;2022-07-15T07:40:04;101600.85;;;32.20;25.08
47809;BME280;33573;38.790;-77.084;2022-07-15T07:42:32;101606.72;;;32.12;25.15
47809;BME280;33573;38.790;-77.084;2022-07-15T07:45:00;101604.59;;;32.05;25.17
47809;BME280;33573;38.790;-77.084;2022-07-15T07:47:28;101603.28;;;32.00;25.23
47809;BME280;33573;38.790;-77.084;2022-07-15T07:49:56;101601.67;;;32.29;25.23
47809;BME280;33573;38.790;-77.084;2022-07-15T07:52:24;101596.15;;;32.20;25.16
47809;BME280;33573;38.790;-77.084;2022-07-15T07:54:52;101594.61;;;32.17;25.17
47809;BME280;33573;38.790;-77.084;2022-07-15T07:57:20;101594.87;;;32.17;25.17
47809;BME280;33573;38.790;-77.084;2022-07-15T07:59:48;101593.60;;;32.20;25.20
47809;BME280;33573;38.790;-77.084;2022-07-15T08:02:16;101590.59;;;32.36;25.24
47809;BME280;33573;38.790;-77.084;2022-07-15T08:04:44;101590.74;;;32.36;25.23
47809;BME280;33573;38.790;-77.084;2022-07-15T08:07:12;101590.77;;;32.44;25.20
47809;BME280;33573;38.790;-77.084;2022-07-15T08:09:40;101594.52;;;32.42;25.22
47809;BME280;33573;38.790;-77.084;2022-07-15T08:12:08;101593.63;;;32.48;25.18
47809;BME280;33573;38.790;-77.084;2022-07-15T08:14:36;101592.39;;;32.45;25.20
47809;BME280;33573;38.790;-77.084;2022-07-15T08:17:04;101591.58;;;32.50;25.21
47809;BME280;33573;38.790;-77.084;2022-07-15T08:19:32;101590.56;;;32.32;25.16
47809;BME280;33573;38.790;-77.084;2022-07-15T08:22:00;101590.12;;;32.27;25.18
47809;BME280;33573;38.790;-77.084;2022-07-15T08:24:28;101589.86;;;32.40;25.30
47809;BME280;33573;38.790;-77.084;2022-07-15T08:26:56;101586.29;;;32.43;25.26
47809;BME280;33573;38.790;-77.084;2022-07-15T08:29:24;101584.42;;;32.46;25.28
47809;BME280;33573;38.790;-77.084;2022-07-15T08:31:52;101580.76;;;32.46;25.28
47809;BME280;33573;38.790;-77.084;2022-07-15T08:34:20;101582.44;;;32.46;25.28
47809;BME280;33573;38.790;-77.084;2022-07-15T08:36:49;101580.88;;;32.39;25.31
47809;BME280;33573;38.790;-77.084;2022-07-15T08:39:16;101574.49;;;32.44;25.31
47809;BME280;33573;38.790;-77.084;2022-07-15T08:41:46;101576.34;;;32.22;25.31
47809;BME280;33573;38.790;-77.084;2022-07-15T08:44:13;101575.73;;;32.31;25.28
47809;BME280;33573;38.790;-77.084;2022-07-15T08:46:45;101574.69;;;32.55;25.27
47809;BME280;33573;38.790;-77.084;2022-07-15T08:49:14;101573.76;;;32.35;25.25
47809;BME280;33573;38.790;-77.084;2022-07-15T08:51:44;101578.45;;;32.21;25.31
47809;BME280;33573;38.790;-77.084;2022-07-15T08:54:13;101580.29;;;32.34;25.26
47809;BME280;33573;38.790;-77.084;2022-07-15T08:56:41;101579.31;;;32.27;25.31
47809;BME280;33573;38.790;-77.084;2022-07-15T08:59:09;101576.84;;;32.52;25.30
47809;BME280;33573;38.790;-77.084;2022-07-15T09:01:42;101574.85;;;32.26;25.27
47809;BME280;33573;38.790;-77.084;2022-07-15T09:04:10;101573.98;;;32.29;25.34
47809;BME280;33573;38.790;-77.084;2022-07-15T09:06:40;101578.12;;;32.47;25.36
47809;BME280;33573;38.790;-77.084;2022-07-15T09:09:40;101579.67;;;32.32;25.32
47809;BME280;33573;38.790;-77.084;2022-07-15T09:12:10;101580.77;;;32.40;25.28
47809;BME280;33573;38.790;-77.084;2022-07-15T09:14:41;101581.26;;;32.55;25.28
47809;BME280;33573;38.790;-77.084;2022-07-15T09:17:24;101582.32;;;32.46;25.32
47809;BME280;33573;38.790;-77.084;2022-07-15T09:20:03;101580.35;;;32.23;25.38
47809;BME280;33573;38.790;-77.084;2022-07-15T09:22:34;101577.63;;;32.34;25.33
47809;BME280;33573;38.790;-77.084;2022-07-15T09:25:13;101579.18;;;32.49;25.37
47809;BME280;33573;38.790;-77.084;2022-07-15T09:27:43;101583.12;;;32.42;25.39
47809;BME280;33573;38.790;-77.084;2022-07-15T09:30:17;101586.20;;;32.41;25.39
47809;BME280;33573;38.790;-77.084;2022-07-15T09:32:45;101590.89;;;32.26;25.42
47809;BME280;33573;38.790;-77.084;2022-07-15T09:35:17;101594.60;;;32.20;25.44
47809;BME280;33573;38.790;-77.084;2022-07-15T09:37:55;101593.86;;;32.18;25.44
47809;BME280;33573;38.790;-77.084;2022-07-15T09:40:23;101593.77;;;32.26;25.42
47809;BME280;33573;38.790;-77.084;2022-07-15T09:43:02;101592.54;;;32.23;25.48
47809;BME280;33573;38.790;-77.084;2022-07-15T09:45:29;101596.26;;;32.23;25.45
47809;BME280;33573;38.790;-77.084;2022-07-15T09:48:05;101602.20;;;32.15;25.49
47809;BME280;33573;38.790;-77.084;2022-07-15T09:50:34;101603.09;;;32.28;25.45
47809;BME280;33573;38.790;-77.084;2022-07-15T09:53:05;101603.18;;;32.43;25.44
47809;BME280;33573;38.790;-77.084;2022-07-15T09:55:37;101604.40;;;32.48;25.47
47809;BME280;33573;38.790;-77.084;2022-07-15T09:58:06;101609.00;;;32.33;25.55
47809;BME280;33573;38.790;-77.084;2022-07-15T10:00:34;101613.48;;;32.38;25.57
47809;BME280;33573;38.790;-77.084;2022-07-15T10:03:02;101611.10;;;32.38;25.56
47809;BME280;33573;38.790;-77.084;2022-07-15T10:05:31;101607.17;;;32.11;25.54
47809;BME280;33573;38.790;-77.084;2022-07-15T10:08:02;101605.26;;;32.35;25.57
47809;BME280;33573;38.790;-77.084;2022-07-15T10:10:30;101608.27;;;32.16;25.55
47809;BME280;33573;38.790;-77.084;2022-07-15T10:13:16;101608.59;;;32.33;25.57
47809;BME280;33573;38.790;-77.084;2022-07-15T10:15:58;101612.91;;;32.28;25.65
47809;BME280;33573;38.790;-77.084;2022-07-15T10:18:43;101606.41;;;32.32;25.59
47809;BME280;33573;38.790;-77.084;2022-07-15T10:21:24;101601.63;;;32.23;25.57
47809;BME280;33573;38.790;-77.084;2022-07-15T10:25:14;101601.64;;;32.20;25.54
47809;BME280;33573;38.790;-77.084;2022-07-15T10:28:00;101600.72;;;32.23;25.56
47809;BME280;33573;38.790;-77.084;2022-07-15T10:30:30;101608.11;;;32.09;25.59
47809;BME280;33573;38.790;-77.084;2022-07-15T10:33:17;101603.00;;;32.16;25.61
47809;BME280;33573;38.790;-77.084;2022-07-15T10:35:47;101606.19;;;32.20;25.58
47809;BME280;33573;38.790;-77.084;2022-07-15T10:38:25;101615.63;;;32.46;25.57
47809;BME280;33573;38.790;-77.084;2022-07-15T10:41:00;101619.71;;;32.15;25.63
47809;BME280;33573;38.790;-77.084;2022-07-15T10:43:47;101617.12;;;32.36;25.62
47809;BME280;33573;38.790;-77.084;2022-07-15T10:46:24;101620.93;;;32.21;25.59
47809;BME280;33573;38.790;-77.084;2022-07-15T10:49:27;101615.51;;;32.32;25.55
47809;BME280;33573;38.790;-77.084;2022-07-15T10:51:57;101623.63;;;32.43;25.58
47809;BME280;33573;38.790;-77.084;2022-07-15T10:54:42;101627.95;;;32.31;25.65
47809;BME280;33573;38.790;-77.084;2022-07-15T10:57:10;101630.60;;;32.41;25.63
47809;BME280;33573;38.790;-77.084;2022-07-15T10:59:46;101631.42;;;32.35;25.69
47809;BME280;33573;38.790;-77.084;2022-07-15T11:02:15;101632.21;;;32.31;25.68
47809;BME280;33573;38.790;-77.084;2022-07-15T11:04:44;101634.57;;;32.14;25.69
47809;BME280;33573;38.790;-77.084;2022-07-15T11:07:28;101632.13;;;32.20;25.76
47809;BME280;33573;38.790;-77.084;2022-07-15T11:09:58;101631.09;;;32.29;25.74
47809;BME280;33573;38.790;-77.084;2022-07-15T11:13:11;101633.14;;;32.11;25.76
47809;BME280;33573;38.790;-77.084;2022-07-15T11:15:39;101641.10;;;32.04;25.77
47809;BME280;33573;38.790;-77.084;2022-07-15T11:18:06;101645.70;;;32.24;25.81
47809;BME280;33573;38.790;-77.084;2022-07-15T11:20:36;101647.62;;;32.51;25.84
47809;BME280;33573;38.790;-77.084;2022-07-15T11:23:04;101650.96;;;31.97;25.91
47809;BME280;33573;38.790;-77.084;2022-07-15T11:25:34;101652.99;;;32.03;25.87
47809;BME280;33573;38.790;-77.084;2022-07-15T11:28:05;101660.11;;;32.33;25.83
47809;BME280;33573;38.790;-77.084;2022-07-15T11:30:37;101667.48;;;32.12;25.96
47809;BME280;33573;38.790;-77.084;2022-07-15T11:33:07;101670.91;;;32.12;25.98
47809;BME280;33573;38.790;-77.084;2022-07-15T11:35:46;101666.77;;;31.90;25.99
47809;BME280;33573;38.790;-77.084;2022-07-15T11:38:14;101665.51;;;32.14;25.96
47809;BME280;33573;38.790;-77.084;2022-07-15T11:40:46;101666.37;;;32.13;25.96
47809;BME280;33573;38.790;-77.084;2022-07-15T11:43:16;101665.89;;;32.33;25.93
47809;BME280;33573;38.790;-77.084;2022-07-15T11:45:44;101664.71;;;31.96;26.00
47809;BME280;33573;38.790;-77.084;2022-07-15T11:48:13;101665.57;;;31.94;26.02
47809;BME280;33573;38.790;-77.084;2022-07-15T11:50:50;101669.26;;;32.20;26.01
47809;BME280;33573;38.790;-77.084;2022-07-15T11:53:19;101672.85;;;32.01;26.05
47809;BME280;33573;38.790;-77.084;2022-07-15T11:55:50;101678.86;;;32.32;25.99
47809;BME280;33573;38.790;-77.084;2022-07-15T11:58:27;101678.87;;;32.27;26.01
47809;BME280;33573;38.790;-77.084;2022-07-15T12:00:56;101680.01;;;32.22;26.06
47809;BME280;33573;38.790;-77.084;2022-07-15T12:03:23;101684.60;;;32.14;26.01
47809;BME280;33573;38.790;-77.084;2022-07-15T12:06:10;101683.97;;;32.08;26.09
47809;BME280;33573;38.790;-77.084;2022-07-15T12:08:42;101684.26;;;31.88;26.10
47809;BME280;33573;38.790;-77.084;2022-07-15T12:11:14;101682.17;;;32.15;26.04
47809;BME280;33573;38.790;-77.084;2022-07-15T12:13:43;101679.61;;;32.11;26.10
47809;BME280;33573;38.790;-77.084;2022-07-15T12:16:12;101683.29;;;31.82;26.16
47809;BME280;33573;38.790;-77.084;2022-07-15T12:18:42;101685.77;;;31.72;26.24
47809;BME280;33573;38.790;-77.084;2022-07-15T12:21:10;101688.74;;;31.84;26.22
47809;BME280;33573;38.790;-77.084;2022-07-15T12:23:38;101686.05;;;32.11;26.20
47809;BME280;33573;38.790;-77.084;2022-07-15T12:26:08;101685.65;;;31.86;26.21
47809;BME280;33573;38.790;-77.084;2022-07-15T12:28:37;101680.55;;;31.85;26.28
47809;BME280;33573;38.790;-77.084;2022-07-15T12:31:05;101682.51;;;31.89;26.21
47809;BME280;33573;38.790;-77.084;2022-07-15T12:33:35;101679.14;;;32.04;26.22
47809;BME280;33573;38.790;-77.084;2022-07-15T12:36:15;101680.50;;;32.04;26.25
47809;BME280;33573;38.790;-77.084;2022-07-15T12:38:44;101684.96;;;31.93;26.24
47809;BME280;33573;38.790;-77.084;2022-07-15T12:41:25;101686.35;;;31.90;26.24
47809;BME280;33573;38.790;-77.084;2022-07-15T12:43:53;101687.87;;;32.09;26.25